Nearby METAR Reports

 

KIAG - Niagara Falls, New York, USA
Distance from station: W 13mi, 20km
Updated: Thu, 11-Aug-2022 7:53am EDT
Clear
Clear
 Wind from NW
Wind: NW 14 mph , 22 km/h
Temperature: 68°F , 20°C
Dew Point: 55°F , 13°C
Humidity: 64%
Barometer: 29.98 inHg , 1015.2 hPa
Clouds: Clear
Visibility: 10 miles , 16 km
2022/08/11 11:53 KIAG 111153Z 31012KT 10SM CLR 20/13 A2998 RMK AO2 SLP148 T02000133 10211 20189 53004
KBUF - Buffalo/Cheektow, New York, USA
Distance from station: S 15mi, 24km
Updated: Thu, 11-Aug-2022 7:54am EDT
Mostly cloudy
Mostly cloudy
 Wind from WNW
Wind: WNW 9 mph , 15 km/h
Temperature: 68°F , 20°C
Dew Point: 57°F , 14°C
Humidity: 69%
Barometer: 29.98 inHg , 1015.2 hPa
Clouds: Mostly cloudy
Visibility: 10 miles , 16 km
Cloud details: Few Clouds 4700 ft
Partly cloudy 9000 ft
Mostly cloudy 25000 ft
2022/08/11 11:54 KBUF 111154Z 29008KT 10SM FEW047 SCT090 BKN250 20/14 A2998 RMK AO2 SLP150 T02000144 10206 20172 53002 $
 
CYSN - St. Catharines A, Ontario, Canada
Distance from station: W 24mi, 39km
Updated: Thu, 11-Aug-2022 8:00am EDT
Few Clouds
Few Clouds
 Wind from WNW
Wind: WNW 12 mph , 19 km/h, Gust: 18 mph , 30 km/h
Temperature: 68°F , 20°C
Dew Point: 57°F , 14°C
Humidity: 69%
Barometer: 29.97 inHg , 1014.9 hPa
Clouds: Few Clouds
Visibility: 15 miles , 24 km
Cloud details: Few Clouds 9000 ft
Few Clouds 25000 ft
2022/08/11 12:00 CYSN 111200Z 30010G16KT 15SM FEW090 FEW250 20/14 A2997 RMK AC1CI1 AC TR SLP152 DENSITY ALT 900FT
CWWZ - Port Weller (mar, Ontario, Canada
Distance from station: WNW 28mi, 44km
Updated: Thu, 11-Aug-2022 7:00pm EDT

 Wind from S
Wind: S 7 mph , 11 km/h
Temperature: 77°F , 25°C
Dew Point: 61°F , 16°C
Humidity: 57%
2022/08/11 23:00 CWWZ 112300Z AUTO 19006KT 25/16 RMK AO1 SLP161 T02540163 56017
 
CWPC - Port Colborne(Au, Ontario, Canada
Distance from station: SW 35mi, 56km
Updated: Thu, 11-Aug-2022 7:00pm EDT

 Wind from W
Wind: W 13 mph , 20 km/h
Temperature: 73°F , 23°C
Dew Point: 59°F , 15°C
Humidity: 61%
2022/08/11 23:00 CWPC 112300Z AUTO 26011KT 23/15 RMK AO1 SLP177 T02300152 58013
CXVN - Vineland (au8), Ontario, Canada
Distance from station: W 36mi, 58km
Updated: Thu, 11-Aug-2022 7:00pm EDT

 Wind from S
Wind: S 10 mph , 17 km/h
Temperature: 77°F , 25°C
Dew Point: 61°F , 16°C
Humidity: 57%
2022/08/11 23:00 CXVN 112300Z AUTO 19009KT 25/16 RMK AO1 SLP154 T02470158 56015
 
CYTZ - Toronto Il Vor, Ontario, Canada
Distance from station: NW 49mi, 79km
Updated: Thu, 11-Aug-2022 8:00am EDT
Clear
Clear
 Wind from NW
Wind: NW 15 mph , 24 km/h, Gust: 23 mph , 37 km/h
Temperature: 68°F , 20°C
Dew Point: 57°F , 14°C
Humidity: 69%
Barometer: 29.97 inHg , 1014.9 hPa
Clouds: Clear
Visibility: 9 miles , 14 km
2022/08/11 12:00 CYTZ 111200Z AUTO 32013G20KT 9SM CLR 20/14 A2997 RMK SLP151 DENSITY ALT 800FT
KROC - Rochester, New York, USA
Distance from station: E 51mi, 81km
Updated: Thu, 11-Aug-2022 7:54am EDT
Mostly cloudy
Mostly cloudy
 Wind from W
Wind: W 7 mph , 11 km/h
Temperature: 64°F , 18°C
Dew Point: 61°F , 16°C
Humidity: 88%
Barometer: 29.97 inHg , 1014.9 hPa
Clouds: Mostly cloudy
Visibility: 10 miles , 16 km
Cloud details: Few Clouds 7000 ft
Partly cloudy 9000 ft
Mostly cloudy 18000 ft
Mostly cloudy 25000 ft
2022/08/11 11:54 KROC 111154Z 26006KT 10SM FEW070 SCT090 BKN180 BKN250 18/16 A2997 RMK AO2 SLP148 ACC SE T01780161 10178 20150 53000
 
CXTO - Toronto City, Ontario, Canada
Distance from station: NW 51mi, 82km
Updated: Thu, 11-Aug-2022 7:00pm EDT

 
Temperature: 77°F , 25°C
Dew Point: 59°F , 15°C
Humidity: 54%
2022/08/11 23:00 CXTO 112300Z AUTO 25/15 RMK AO1 SLP153 T02490146 56019
CYOO - Oshawa, Ontario, Canada
Distance from station: NNW 54mi, 87km
Updated: Thu, 11-Aug-2022 8:00am EDT
Clear
Clear
 Wind from NW
Wind: NW 10 mph , 17 km/h
Temperature: 66°F , 19°C
Dew Point: 59°F , 15°C
Humidity: 78%
Barometer: 29.95 inHg , 1014.2 hPa
Clouds: Clear
Visibility: 9 miles , 14 km
2022/08/11 12:00 CYOO 111200Z AUTO 32009KT 9SM CLR 19/15 A2995 RMK SLP143 DENSITY ALT 1000FT
 
KDKK - Dunkirk, New York, USA
Distance from station: SW 54mi, 87km
Updated: Thu, 11-Aug-2022 7:53am EDT

 Wind from WSW
Wind: WSW 3 mph , 6 km/h
Temperature: 68°F , 20°C
Dew Point: 63°F , 17°C
Humidity: 83%
Barometer: 30.01 inHg , 1016.3 hPa
Visibility: 10 miles , 16 km
2022/08/11 11:53 KDKK 111153Z AUTO 24003KT 10SM 20/17 A3001 RMK AO2 SLP159 T02000172 10206 20178
CWWB - Burlington Piers, Ontario, Canada
Distance from station: W 56mi, 91km
Updated: Thu, 11-Aug-2022 7:00pm EDT

 Wind from SSW
Wind: SSW 7 mph , 11 km/h
Temperature: 81°F , 27°C
Heat Index: 81°F , 27°C
Dew Point: 59°F , 15°C
Humidity: 48%
2022/08/11 23:00 CWWB 112300Z AUTO 21006KT 27/15 RMK AO1 SLP154 T02730152 56017
 
CYYZ - Toronto/Pearson, Ontario, Canada
Distance from station: NW 59mi, 95km
Updated: Thu, 11-Aug-2022 8:00am EDT
Few Clouds
Few Clouds
 Wind from NW
Wind: NW 16 mph , 26 km/h
Temperature: 66°F , 19°C
Dew Point: 57°F , 14°C
Humidity: 73%
Barometer: 29.98 inHg , 1015.2 hPa
Clouds: Few Clouds
Visibility: 15 miles , 24 km
Cloud details: Few Clouds 2500 ft
Few Clouds 6000 ft
Few Clouds 24000 ft
2022/08/11 12:00 CYYZ 111200Z 32014KT 15SM FEW025 FEW060 FEW240 19/14 A2998 RMK CF1SC1CI1 CF TR SC TR SLP154 DENSITY ALT 1200FT
CWNC - Cobourg (mars), Ontario, Canada
Distance from station: NNE 61mi, 98km
Updated: Thu, 11-Aug-2022 7:00pm EDT

 Wind from SW
Wind: SW 7 mph , 11 km/h
Temperature: 72°F , 22°C
Dew Point: 61°F , 16°C
Humidity: 69%
2022/08/11 23:00 CWNC 112300Z AUTO 23006KT 22/16 RMK AO1 6017 SLP159 T02220161 50003
 
CXHM - Hamilton Rbg Cs, Ontario, Canada
Distance from station: W 62mi, 100km
Updated: Thu, 11-Aug-2022 7:00pm EDT

 Wind from WSW
Wind: WSW 3 mph , 6 km/h
Temperature: 81°F , 27°C
Heat Index: 81°F , 27°C
Dew Point: 59°F , 15°C
Humidity: 48%
2022/08/11 23:00 CXHM 112300Z AUTO 25003KT 27/15 RMK AO1 SLP154 T02670147 56017
CYHM - Hamilton Airport, Ontario, Canada
Distance from station: W 63mi, 101km
Updated: Thu, 11-Aug-2022 8:00am EDT
Few Clouds
Few Clouds
 Wind from WNW
Wind: WNW 8 mph , 13 km/h
Temperature: 63°F , 17°C
Dew Point: 57°F , 14°C
Humidity: 83%
Barometer: 30.02 inHg , 1016.6 hPa
Clouds: Few Clouds
Visibility: 15 miles , 24 km
Cloud details: Few Clouds 9000 ft
Few Clouds 24000 ft
2022/08/11 12:00 CYHM 111200Z 30007KT 15SM FEW090 FEW240 17/14 A3002 RMK ACC1CI1 SLP165 DENSITY ALT 1200FT
 
KDSV - Dansville, New York, USA
Distance from station: SE 63mi, 102km
Updated: Thu, 11-Aug-2022 7:54am EDT
Mostly cloudy
Mostly cloudy
 Wind from SE
Wind: SE 10 mph , 17 km/h
Temperature: 64°F , 18°C
Dew Point: 57°F , 14°C
Humidity: 78%
Barometer: 29.99 inHg , 1015.6 hPa
Clouds: Mostly cloudy
Visibility: 10 miles , 16 km
Cloud details: Few Clouds 7500 ft
Mostly cloudy 9000 ft
2022/08/11 11:54 KDSV 111154Z AUTO 13009KT 10SM FEW075 BKN090 18/14 A2999 RMK AO2 SLP160 T01780144 10178 20144 58006
KOLE - Olean, New York, USA
Distance from station: SSE 65mi, 105km
Updated: Thu, 11-Aug-2022 8:15am EDT
Overcast
Overcast
 Wind from calm
Wind: Calm
Temperature: 59°F , 15°C
Dew Point: 59°F , 15°C
Humidity: 100%
Barometer: 30.04 inHg , 1017.3 hPa
Clouds: Overcast
Visibility: 10 miles , 16 km
Cloud details: Overcast 700 ft
2022/08/11 12:15 KOLE 111215Z AUTO 00000KT 10SM OVC007 15/15 A3004 RMK AO2